sensor_id;sensor_type;location;lat;lon;timestamp;pressure;altitude;pressure_sealevel;temperature;humidity
63395;BME280;49531;-34.520;150.798;2022-07-18T00:02:06;100709.06;;;14.75;43.21
63395;BME280;49531;-34.520;150.798;2022-07-18T00:04:34;100711.31;;;14.78;42.75
63395;BME280;49531;-34.520;150.798;2022-07-18T00:07:01;100716.69;;;14.78;42.46
63395;BME280;49531;-34.520;150.798;2022-07-18T00:09:28;100724.06;;;14.82;42.04
63395;BME280;49531;-34.520;150.798;2022-07-18T00:11:55;100723.41;;;14.87;42.03
63395;BME280;49531;-34.520;150.798;2022-07-18T00:14:23;100716.16;;;14.87;42.01
63395;BME280;49531;-34.520;150.798;2022-07-18T00:16:50;100732.69;;;14.91;42.07
63395;BME280;49531;-34.520;150.798;2022-07-18T00:19:18;100745.47;;;14.95;42.08
63395;BME280;49531;-34.520;150.798;2022-07-18T00:21:45;100741.50;;;14.98;42.30
63395;BME280;49531;-34.520;150.798;2022-07-18T00:24:12;100749.13;;;15.01;42.49
63395;BME280;49531;-34.520;150.798;2022-07-18T00:26:40;100743.53;;;15.02;42.26
63395;BME280;49531;-34.520;150.798;2022-07-18T00:29:07;100750.47;;;15.10;42.59
63395;BME280;49531;-34.520;150.798;2022-07-18T00:31:34;100750.88;;;15.14;42.39
63395;BME280;49531;-34.520;150.798;2022-07-18T00:34:02;100754.38;;;15.14;42.29
63395;BME280;49531;-34.520;150.798;2022-07-18T00:36:29;100752.28;;;15.16;42.50
63395;BME280;49531;-34.520;150.798;2022-07-18T00:38:58;100759.53;;;15.16;42.38
63395;BME280;49531;-34.520;150.798;2022-07-18T00:41:25;100756.53;;;15.24;42.72
63395;BME280;49531;-34.520;150.798;2022-07-18T00:43:52;100753.16;;;15.28;43.05
63395;BME280;49531;-34.520;150.798;2022-07-18T00:46:24;100758.09;;;15.31;42.84
63395;BME280;49531;-34.520;150.798;2022-07-18T00:48:51;100750.19;;;15.37;42.90
63395;BME280;49531;-34.520;150.798;2022-07-18T00:51:20;100762.59;;;15.38;42.57
63395;BME280;49531;-34.520;150.798;2022-07-18T00:53:48;100774.53;;;15.42;42.27
63395;BME280;49531;-34.520;150.798;2022-07-18T00:56:19;100767.53;;;15.41;42.00
63395;BME280;49531;-34.520;150.798;2022-07-18T00:58:47;100763.19;;;15.40;42.14
63395;BME280;49531;-34.520;150.798;2022-07-18T01:01:14;100762.72;;;15.43;41.88
63395;BME280;49531;-34.520;150.798;2022-07-18T01:03:59;100764.53;;;15.49;42.14
63395;BME280;49531;-34.520;150.798;2022-07-18T01:06:26;100761.69;;;15.62;42.00
63395;BME280;49531;-34.520;150.798;2022-07-18T01:08:53;100764.38;;;15.62;41.80
63395;BME280;49531;-34.520;150.798;2022-07-18T01:11:20;100759.72;;;15.69;41.76
63395;BME280;49531;-34.520;150.798;2022-07-18T01:13:48;100761.06;;;15.78;41.63
63395;BME280;49531;-34.520;150.798;2022-07-18T01:16:16;100752.47;;;15.70;41.45
63395;BME280;49531;-34.520;150.798;2022-07-18T01:18:45;100755.03;;;15.64;41.63
63395;BME280;49531;-34.520;150.798;2022-07-18T01:21:14;100754.19;;;15.64;41.54
63395;BME280;49531;-34.520;150.798;2022-07-18T01:23:42;100753.16;;;15.65;41.03
63395;BME280;49531;-34.520;150.798;2022-07-18T01:26:11;100755.16;;;15.70;40.80
63395;BME280;49531;-34.520;150.798;2022-07-18T01:28:39;100759.50;;;15.71;40.32
63395;BME280;49531;-34.520;150.798;2022-07-18T01:31:06;100756.44;;;15.67;40.59
63395;BME280;49531;-34.520;150.798;2022-07-18T01:33:34;100755.84;;;15.65;40.67
63395;BME280;49531;-34.520;150.798;2022-07-18T01:36:03;100767.22;;;15.67;41.03
63395;BME280;49531;-34.520;150.798;2022-07-18T01:38:32;100764.53;;;15.67;40.96
63395;BME280;49531;-34.520;150.798;2022-07-18T01:40:59;100760.56;;;15.70;40.71
63395;BME280;49531;-34.520;150.798;2022-07-18T01:43:27;100753.31;;;15.70;40.57
63395;BME280;49531;-34.520;150.798;2022-07-18T01:45:54;100763.47;;;15.68;40.75
63395;BME280;49531;-34.520;150.798;2022-07-18T01:48:22;100766.09;;;15.75;40.49
63395;BME280;49531;-34.520;150.798;2022-07-18T01:50:50;100762.78;;;15.73;40.68
63395;BME280;49531;-34.520;150.798;2022-07-18T01:53:17;100776.63;;;15.76;40.49
63395;BME280;49531;-34.520;150.798;2022-07-18T01:55:44;100772.28;;;15.75;39.92
63395;BME280;49531;-34.520;150.798;2022-07-18T01:58:11;100763.63;;;15.73;40.44
63395;BME280;49531;-34.520;150.798;2022-07-18T02:00:38;100760.69;;;15.75;40.13
63395;BME280;49531;-34.520;150.798;2022-07-18T02:03:06;100763.63;;;15.73;40.20
63395;BME280;49531;-34.520;150.798;2022-07-18T02:05:33;100755.31;;;15.75;40.18
63395;BME280;49531;-34.520;150.798;2022-07-18T02:08:00;100748.28;;;15.74;40.04
63395;BME280;49531;-34.520;150.798;2022-07-18T02:10:27;100759.88;;;15.74;39.98
63395;BME280;49531;-34.520;150.798;2022-07-18T02:12:54;100763.63;;;15.73;39.87
63395;BME280;49531;-34.520;150.798;2022-07-18T02:15:21;100756.59;;;15.72;39.86
63395;BME280;49531;-34.520;150.798;2022-07-18T02:17:48;100759.88;;;15.74;39.89
63395;BME280;49531;-34.520;150.798;2022-07-18T02:20:16;100754.72;;;15.73;39.83
63395;BME280;49531;-34.520;150.798;2022-07-18T02:22:43;100751.19;;;15.72;40.14
63395;BME280;49531;-34.520;150.798;2022-07-18T02:25:10;100749.09;;;15.74;40.01
63395;BME280;49531;-34.520;150.798;2022-07-18T02:27:38;100744.53;;;15.75;39.99
63395;BME280;49531;-34.520;150.798;2022-07-18T02:30:06;100756.97;;;15.76;40.30
63395;BME280;49531;-34.520;150.798;2022-07-18T02:32:34;100751.78;;;15.74;40.43
63395;BME280;49531;-34.520;150.798;2022-07-18T02:35:05;100753.66;;;15.74;40.36
63395;BME280;49531;-34.520;150.798;2022-07-18T02:37:32;100767.13;;;15.74;40.03
63395;BME280;49531;-34.520;150.798;2022-07-18T02:39:59;100760.31;;;15.71;40.23
63395;BME280;49531;-34.520;150.798;2022-07-18T02:42:26;100758.47;;;15.72;40.28
63395;BME280;49531;-34.520;150.798;2022-07-18T02:44:53;100751.19;;;15.72;39.98
63395;BME280;49531;-34.520;150.798;2022-07-18T02:47:20;100747.91;;;15.70;39.82
63395;BME280;49531;-34.520;150.798;2022-07-18T02:49:47;100748.97;;;15.69;39.93
63395;BME280;49531;-34.520;150.798;2022-07-18T02:52:14;100752.25;;;15.71;40.02
63395;BME280;49531;-34.520;150.798;2022-07-18T02:54:42;100756.81;;;15.71;39.94
63395;BME280;49531;-34.520;150.798;2022-07-18T02:57:09;100758.69;;;15.70;40.04
63395;BME280;49531;-34.520;150.798;2022-07-18T02:59:36;100750.00;;;15.68;40.09
63395;BME280;49531;-34.520;150.798;2022-07-18T03:02:03;100751.88;;;15.67;39.82
63395;BME280;49531;-34.520;150.798;2022-07-18T03:04:31;100752.69;;;15.68;39.65
63395;BME280;49531;-34.520;150.798;2022-07-18T03:06:58;100759.13;;;15.67;39.61
63395;BME280;49531;-34.520;150.798;2022-07-18T03:09:26;100763.69;;;15.66;39.59
63395;BME280;49531;-34.520;150.798;2022-07-18T03:11:57;100756.22;;;15.68;39.54
63395;BME280;49531;-34.520;150.798;2022-07-18T03:14:24;100762.88;;;15.66;39.36
63395;BME280;49531;-34.520;150.798;2022-07-18T03:16:51;100757.94;;;15.63;39.40
63395;BME280;49531;-34.520;150.798;2022-07-18T03:19:18;100768.25;;;15.66;39.50
63395;BME280;49531;-34.520;150.798;2022-07-18T03:21:45;100766.38;;;15.66;39.61
63395;BME280;49531;-34.520;150.798;2022-07-18T03:24:13;100761.00;;;15.66;39.74
63395;BME280;49531;-34.520;150.798;2022-07-18T03:26:44;100764.53;;;15.67;39.54
63395;BME280;49531;-34.520;150.798;2022-07-18T03:29:11;100762.88;;;15.66;39.51
63395;BME280;49531;-34.520;150.798;2022-07-18T03:31:39;100773.06;;;15.64;39.41
63395;BME280;49531;-34.520;150.798;2022-07-18T03:34:06;100774.69;;;15.65;39.53
63395;BME280;49531;-34.520;150.798;2022-07-18T03:36:33;100783.59;;;15.65;39.43
63395;BME280;49531;-34.520;150.798;2022-07-18T03:39:02;100774.91;;;15.63;39.46
63395;BME280;49531;-34.520;150.798;2022-07-18T03:41:29;100789.19;;;15.64;39.36
63395;BME280;49531;-34.520;150.798;2022-07-18T03:43:56;100773.28;;;15.62;39.29
63395;BME280;49531;-34.520;150.798;2022-07-18T03:46:23;100793.16;;;15.61;39.20
63395;BME280;49531;-34.520;150.798;2022-07-18T03:48:50;100788.59;;;15.62;39.32
63395;BME280;49531;-34.520;150.798;2022-07-18T03:51:18;100793.53;;;15.65;39.11
63395;BME280;49531;-34.520;150.798;2022-07-18T03:53:45;100789.56;;;15.67;38.87
63395;BME280;49531;-34.520;150.798;2022-07-18T03:56:12;100793.53;;;15.65;39.03
63395;BME280;49531;-34.520;150.798;2022-07-18T03:58:39;100791.91;;;15.64;38.92
63395;BME280;49531;-34.520;150.798;2022-07-18T04:01:06;100786.50;;;15.64;39.22
63395;BME280;49531;-34.520;150.798;2022-07-18T04:03:33;100793.75;;;15.63;39.36
63395;BME280;49531;-34.520;150.798;2022-07-18T04:06:00;100795.63;;;15.63;39.31
63395;BME280;49531;-34.520;150.798;2022-07-18T04:08:27;100795.63;;;15.63;39.35
63395;BME280;49531;-34.520;150.798;2022-07-18T04:10:55;100790.84;;;15.65;38.84
63395;BME280;49531;-34.520;150.798;2022-07-18T04:13:22;100779.03;;;15.66;39.16
63395;BME280;49531;-34.520;150.798;2022-07-18T04:15:49;100793.75;;;15.63;39.39
63395;BME280;49531;-34.520;150.798;2022-07-18T04:18:16;100792.72;;;15.64;39.57
63395;BME280;49531;-34.520;150.798;2022-07-18T04:20:43;100785.69;;;15.63;39.55
63395;BME280;49531;-34.520;150.798;2022-07-18T04:23:10;100786.97;;;15.61;39.71
63395;BME280;49531;-34.520;150.798;2022-07-18T04:25:40;100792.94;;;15.63;39.82
63395;BME280;49531;-34.520;150.798;2022-07-18T04:28:10;100788.16;;;15.65;40.08
63395;BME280;49531;-34.520;150.798;2022-07-18T04:30:38;100788.16;;;15.65;40.24
63395;BME280;49531;-34.520;150.798;2022-07-18T04:33:07;100797.28;;;15.64;40.36
63395;BME280;49531;-34.520;150.798;2022-07-18T04:35:35;100792.72;;;15.64;40.33
63395;BME280;49531;-34.520;150.798;2022-07-18T04:38:03;100796.47;;;15.63;40.12
63395;BME280;49531;-34.520;150.798;2022-07-18T04:40:30;100796.47;;;15.63;39.73
63395;BME280;49531;-34.520;150.798;2022-07-18T04:42:57;100798.31;;;15.63;39.94
63395;BME280;49531;-34.520;150.798;2022-07-18T04:45:24;100805.81;;;15.61;40.25
63395;BME280;49531;-34.520;150.798;2022-07-18T04:47:52;100803.72;;;15.63;40.16
63395;BME280;49531;-34.520;150.798;2022-07-18T04:50:21;100802.06;;;15.62;40.36
63395;BME280;49531;-34.520;150.798;2022-07-18T04:52:50;100802.88;;;15.62;40.69
63395;BME280;49531;-34.520;150.798;2022-07-18T04:55:20;100809.09;;;15.63;40.45
63395;BME280;49531;-34.520;150.798;2022-07-18T04:57:51;100804.75;;;15.62;40.43
63395;BME280;49531;-34.520;150.798;2022-07-18T05:00:23;100805.56;;;15.62;39.84
63395;BME280;49531;-34.520;150.798;2022-07-18T05:02:53;100808.06;;;15.64;40.13
63395;BME280;49531;-34.520;150.798;2022-07-18T05:05:21;100817.19;;;15.63;40.37
63395;BME280;49531;-34.520;150.798;2022-07-18T05:07:50;100812.84;;;15.62;40.61
63395;BME280;49531;-34.520;150.798;2022-07-18T05:10:19;100816.56;;;15.61;40.58
63395;BME280;49531;-34.520;150.798;2022-07-18T05:12:49;100820.09;;;15.61;40.56
63395;BME280;49531;-34.520;150.798;2022-07-18T05:15:18;100822.56;;;15.63;40.43
63395;BME280;49531;-34.520;150.798;2022-07-18T05:17:46;100820.91;;;15.62;40.60
63395;BME280;49531;-34.520;150.798;2022-07-18T05:20:15;100829.81;;;15.62;40.71
63395;BME280;49531;-34.520;150.798;2022-07-18T05:22:43;100830.03;;;15.61;40.68
63395;BME280;49531;-34.520;150.798;2022-07-18T05:25:11;100840.81;;;15.61;40.69
63395;BME280;49531;-34.520;150.798;2022-07-18T05:27:39;100841.41;;;15.63;40.50
63395;BME280;49531;-34.520;150.798;2022-07-18T05:30:09;100846.44;;;15.59;40.58
63395;BME280;49531;-34.520;150.798;2022-07-18T05:32:38;100847.22;;;15.60;40.68
63395;BME280;49531;-34.520;150.798;2022-07-18T05:35:06;100842.09;;;15.58;40.51
63395;BME280;49531;-34.520;150.798;2022-07-18T05:37:33;100856.97;;;15.61;40.44
63395;BME280;49531;-34.520;150.798;2022-07-18T05:40:04;100858.81;;;15.60;40.59
63395;BME280;49531;-34.520;150.798;2022-07-18T05:42:31;100860.69;;;15.60;40.67
63395;BME280;49531;-34.520;150.798;2022-07-18T05:44:58;100860.94;;;15.58;40.64
63395;BME280;49531;-34.520;150.798;2022-07-18T05:47:25;100864.47;;;15.59;40.76
63395;BME280;49531;-34.520;150.798;2022-07-18T05:49:52;100863.38;;;15.60;40.66
63395;BME280;49531;-34.520;150.798;2022-07-18T05:52:19;100862.00;;;15.57;40.61
63395;BME280;49531;-34.520;150.798;2022-07-18T05:54:46;100862.19;;;15.56;40.78
63395;BME280;49531;-34.520;150.798;2022-07-18T05:57:14;100860.53;;;15.55;40.86
63395;BME280;49531;-34.520;150.798;2022-07-18T05:59:41;100855.78;;;15.57;40.83
63395;BME280;49531;-34.520;150.798;2022-07-18T06:02:08;100859.50;;;15.56;40.96
63395;BME280;49531;-34.520;150.798;2022-07-18T06:04:35;100865.94;;;15.55;40.98
63395;BME280;49531;-34.520;150.798;2022-07-18T06:07:03;100868.63;;;15.55;41.20
63395;BME280;49531;-34.520;150.798;2022-07-18T06:09:30;100880.00;;;15.57;41.54
63395;BME280;49531;-34.520;150.798;2022-07-18T06:12:01;100880.63;;;15.59;41.35
63395;BME280;49531;-34.520;150.798;2022-07-18T06:14:28;100886.00;;;15.59;41.11
63395;BME280;49531;-34.520;150.798;2022-07-18T06:16:56;100885.75;;;15.60;41.11
63395;BME280;49531;-34.520;150.798;2022-07-18T06:19:24;100892.22;;;15.59;40.82
63395;BME280;49531;-34.520;150.798;2022-07-18T06:21:51;100892.22;;;15.59;40.44
63395;BME280;49531;-34.520;150.798;2022-07-18T06:24:18;100892.22;;;15.59;40.97
63395;BME280;49531;-34.520;150.798;2022-07-18T06:26:45;100895.34;;;15.56;39.86
63395;BME280;49531;-34.520;150.798;2022-07-18T06:29:12;100900.91;;;15.55;40.08
63395;BME280;49531;-34.520;150.798;2022-07-18T06:31:39;100905.47;;;15.54;40.78
63395;BME280;49531;-34.520;150.798;2022-07-18T06:34:06;100907.94;;;15.56;40.90
63395;BME280;49531;-34.520;150.798;2022-07-18T06:36:33;100912.97;;;15.52;39.53
63395;BME280;49531;-34.520;150.798;2022-07-18T06:39:01;100915.44;;;15.54;40.83
63395;BME280;49531;-34.520;150.798;2022-07-18T06:41:34;100920.44;;;15.50;40.98
63395;BME280;49531;-34.520;150.798;2022-07-18T06:44:01;100916.91;;;15.50;39.91
63395;BME280;49531;-34.520;150.798;2022-07-18T06:46:28;100919.59;;;15.50;39.88
63395;BME280;49531;-34.520;150.798;2022-07-18T06:48:55;100923.34;;;15.49;39.22
63395;BME280;49531;-34.520;150.798;2022-07-18T06:51:22;100929.75;;;15.48;39.75
63395;BME280;49531;-34.520;150.798;2022-07-18T06:53:51;100934.00;;;15.37;38.70
63395;BME280;49531;-34.520;150.798;2022-07-18T06:56:18;100936.25;;;15.40;39.57
63395;BME280;49531;-34.520;150.798;2022-07-18T06:58:46;100937.06;;;15.41;38.98
63395;BME280;49531;-34.520;150.798;2022-07-18T07:01:18;100936.31;;;15.33;38.62
63395;BME280;49531;-34.520;150.798;2022-07-18T07:03:45;100944.34;;;15.15;38.79
63395;BME280;49531;-34.520;150.798;2022-07-18T07:06:13;100943.31;;;15.16;39.31
63395;BME280;49531;-34.520;150.798;2022-07-18T07:08:42;100944.13;;;15.17;38.94
63395;BME280;49531;-34.520;150.798;2022-07-18T07:11:10;100953.44;;;15.14;38.93
63395;BME280;49531;-34.520;150.798;2022-07-18T07:13:37;100950.53;;;15.16;39.39
63395;BME280;49531;-34.520;150.798;2022-07-18T07:16:04;100953.00;;;15.17;39.59
63395;BME280;49531;-34.520;150.798;2022-07-18T07:18:31;100954.53;;;15.07;39.01
63395;BME280;49531;-34.520;150.798;2022-07-18T07:20:58;100964.03;;;15.09;39.67
63395;BME280;49531;-34.520;150.798;2022-07-18T07:23:26;100967.16;;;15.06;39.05
63395;BME280;49531;-34.520;150.798;2022-07-18T07:25:53;100969.41;;;15.09;39.73
63395;BME280;49531;-34.520;150.798;2022-07-18T07:28:21;100978.78;;;15.00;39.26
63395;BME280;49531;-34.520;150.798;2022-07-18T07:30:48;100974.22;;;15.00;39.53
63395;BME280;49531;-34.520;150.798;2022-07-18T07:33:15;100975.06;;;15.01;39.28
63395;BME280;49531;-34.520;150.798;2022-07-18T07:35:42;100982.13;;;14.95;39.42
63395;BME280;49531;-34.520;150.798;2022-07-18T07:38:09;100987.31;;;14.90;39.80
63395;BME280;49531;-34.520;150.798;2022-07-18T07:40:44;100987.53;;;14.89;39.60
63395;BME280;49531;-34.520;150.798;2022-07-18T07:43:14;100989.63;;;14.87;40.02
63395;BME280;49531;-34.520;150.798;2022-07-18T07:45:42;100999.97;;;14.83;40.35
63395;BME280;49531;-34.520;150.798;2022-07-18T07:48:09;101001.63;;;14.84;39.97
63395;BME280;49531;-34.520;150.798;2022-07-18T07:50:37;101007.44;;;14.81;39.71
63395;BME280;49531;-34.520;150.798;2022-07-18T07:53:04;101005.63;;;14.75;39.85
63395;BME280;49531;-34.520;150.798;2022-07-18T07:55:31;101015.56;;;14.75;40.09
63395;BME280;49531;-34.520;150.798;2022-07-18T07:57:58;101013.91;;;14.74;40.12
63395;BME280;49531;-34.520;150.798;2022-07-18T08:00:25;101018.91;;;14.70;40.51
63395;BME280;49531;-34.520;150.798;2022-07-18T08:02:58;101022.63;;;14.69;40.86
63395;BME280;49531;-34.520;150.798;2022-07-18T08:05:28;101023.25;;;14.64;40.60
63395;BME280;49531;-34.520;150.798;2022-07-18T08:07:56;101031.59;;;14.43;41.38
63395;BME280;49531;-34.520;150.798;2022-07-18T08:10:24;101028.88;;;14.50;41.53
63395;BME280;49531;-34.520;150.798;2022-07-18T08:12:51;101038.59;;;14.57;40.86
63395;BME280;49531;-34.520;150.798;2022-07-18T08:15:18;101034.06;;;14.51;40.87
63395;BME280;49531;-34.520;150.798;2022-07-18T08:17:45;101033.03;;;14.52;41.12
63395;BME280;49531;-34.520;150.798;2022-07-18T08:20:13;101046.06;;;14.49;41.03
63395;BME280;49531;-34.520;150.798;2022-07-18T08:22:54;101048.13;;;14.47;40.87
63395;BME280;49531;-34.520;150.798;2022-07-18T08:25:22;101052.69;;;14.46;41.05
63395;BME280;49531;-34.520;150.798;2022-07-18T08:27:49;101056.63;;;14.44;41.28
63395;BME280;49531;-34.520;150.798;2022-07-18T08:30:16;101067.16;;;14.45;41.69
63395;BME280;49531;-34.520;150.798;2022-07-18T08:32:44;101063.03;;;14.43;41.44
63395;BME280;49531;-34.520;150.798;2022-07-18T08:35:11;101073.38;;;14.32;41.74
63395;BME280;49531;-34.520;150.798;2022-07-18T08:37:38;101076.06;;;14.26;41.88
63395;BME280;49531;-34.520;150.798;2022-07-18T08:40:06;101072.97;;;14.29;41.56
63395;BME280;49531;-34.520;150.798;2022-07-18T08:42:34;101075.03;;;14.27;41.58
63395;BME280;49531;-34.520;150.798;2022-07-18T08:45:03;101083.09;;;14.20;41.85
63395;BME280;49531;-34.520;150.798;2022-07-18T08:47:31;101082.47;;;14.25;42.12
63395;BME280;49531;-34.520;150.798;2022-07-18T08:49:59;101090.13;;;14.28;41.90
63395;BME280;49531;-34.520;150.798;2022-07-18T08:52:28;101087.44;;;14.21;41.72
63395;BME280;49531;-34.520;150.798;2022-07-18T08:54:56;101094.88;;;14.26;41.63
63395;BME280;49531;-34.520;150.798;2022-07-18T08:57:24;101105.63;;;14.19;41.30
63395;BME280;49531;-34.520;150.798;2022-07-18T08:59:51;101111.84;;;14.20;41.26
63395;BME280;49531;-34.520;150.798;2022-07-18T09:02:18;101120.91;;;14.19;41.46
63395;BME280;49531;-34.520;150.798;2022-07-18T09:04:50;101119.28;;;14.18;41.52
63395;BME280;49531;-34.520;150.798;2022-07-18T09:07:28;101120.50;;;14.15;41.59
63395;BME280;49531;-34.520;150.798;2022-07-18T09:09:58;101120.50;;;14.09;41.47
63395;BME280;49531;-34.520;150.798;2022-07-18T09:12:29;101122.56;;;14.00;41.60
63395;BME280;49531;-34.520;150.798;2022-07-18T09:15:09;101130.00;;;14.05;41.71
63395;BME280;49531;-34.520;150.798;2022-07-18T09:17:41;101137.84;;;13.99;41.89
63395;BME280;49531;-34.520;150.798;2022-07-18T09:20:11;101151.53;;;13.98;42.08
63395;BME280;49531;-34.520;150.798;2022-07-18T09:22:46;101140.38;;;13.94;41.68
63395;BME280;49531;-34.520;150.798;2022-07-18T09:25:19;101146.78;;;13.93;42.04
63395;BME280;49531;-34.520;150.798;2022-07-18T09:27:49;101148.00;;;13.84;42.04
63395;BME280;49531;-34.520;150.798;2022-07-18T09:33:09;101151.88;;;13.62;42.05
63395;BME280;49531;-34.520;150.798;2022-07-18T09:35:43;101156.44;;;13.55;42.54
63395;BME280;49531;-34.520;150.798;2022-07-18T09:38:12;101159.75;;;13.70;42.27
63395;BME280;49531;-34.520;150.798;2022-07-18T09:40:46;101158.91;;;13.69;42.18
63395;BME280;49531;-34.520;150.798;2022-07-18T09:43:15;101165.31;;;13.68;41.91
63395;BME280;49531;-34.520;150.798;2022-07-18T09:45:54;101159.31;;;13.66;41.84
63395;BME280;49531;-34.520;150.798;2022-07-18T09:48:24;101147.34;;;13.69;41.88
63395;BME280;49531;-34.520;150.798;2022-07-18T09:51:01;101146.94;;;13.72;41.31
63395;BME280;49531;-34.520;150.798;2022-07-18T09:53:34;101159.75;;;13.70;41.28
63395;BME280;49531;-34.520;150.798;2022-07-18T09:56:10;101169.66;;;13.69;41.19
63395;BME280;49531;-34.520;150.798;2022-07-18T09:59:03;101173.34;;;13.55;40.97
63395;BME280;49531;-34.520;150.798;2022-07-18T10:01:30;101180.59;;;13.55;41.10
63395;BME280;49531;-34.520;150.798;2022-07-18T10:03:59;101193.16;;;13.48;41.55
63395;BME280;49531;-34.520;150.798;2022-07-18T10:06:27;101190.06;;;13.51;41.81
63395;BME280;49531;-34.520;150.798;2022-07-18T10:08:54;101199.97;;;13.50;41.48
63395;BME280;49531;-34.520;150.798;2022-07-18T10:11:22;101203.88;;;13.48;41.76
63395;BME280;49531;-34.520;150.798;2022-07-18T10:13:50;101212.34;;;13.45;41.44
63395;BME280;49531;-34.520;150.798;2022-07-18T10:16:18;101222.84;;;13.40;42.01
63395;BME280;49531;-34.520;150.798;2022-07-18T10:18:45;101221.81;;;13.41;42.07
63395;BME280;49531;-34.520;150.798;2022-07-18T10:21:13;101218.72;;;13.44;42.15
63395;BME280;49531;-34.520;150.798;2022-07-18T10:23:45;101217.31;;;13.48;41.97
63395;BME280;49531;-34.520;150.798;2022-07-18T10:26:24;101222.03;;;13.46;41.97
63395;BME280;49531;-34.520;150.798;2022-07-18T10:31:31;101234.75;;;13.30;42.42
63395;BME280;49531;-34.520;150.798;2022-07-18T10:36:36;101236.63;;;13.30;42.78
63395;BME280;49531;-34.520;150.798;2022-07-18T11:00:25;101278.59;;;12.82;44.08
63395;BME280;49531;-34.520;150.798;2022-07-18T11:03:04;101293.13;;;12.94;43.70
63395;BME280;49531;-34.520;150.798;2022-07-18T11:16:04;101313.28;;;12.90;44.76
63395;BME280;49531;-34.520;150.798;2022-07-18T11:21:17;101326.06;;;12.88;44.28
63395;BME280;49531;-34.520;150.798;2022-07-18T11:23:47;101342.53;;;12.85;44.45
63395;BME280;49531;-34.520;150.798;2022-07-18T11:26:16;101347.25;;;12.83;44.90
63395;BME280;49531;-34.520;150.798;2022-07-18T11:28:45;101350.78;;;12.83;44.69
63395;BME280;49531;-34.520;150.798;2022-07-18T11:31:15;101360.66;;;12.83;44.84
63395;BME280;49531;-34.520;150.798;2022-07-18T11:33:47;101372.81;;;12.79;45.24
63395;BME280;49531;-34.520;150.798;2022-07-18T11:36:29;101375.06;;;12.75;44.95
63395;BME280;49531;-34.520;150.798;2022-07-18T11:38:58;101381.88;;;12.78;44.85
63395;BME280;49531;-34.520;150.798;2022-07-18T11:41:26;101388.19;;;12.70;45.38
63395;BME280;49531;-34.520;150.798;2022-07-18T11:43:55;101392.66;;;12.63;45.65
63395;BME280;49531;-34.520;150.798;2022-07-18T11:46:25;101393.13;;;12.66;45.51
63395;BME280;49531;-34.520;150.798;2022-07-18T11:49:01;101402.28;;;12.57;46.00
63395;BME280;49531;-34.520;150.798;2022-07-18T11:51:43;101401.19;;;12.52;46.45
63395;BME280;49531;-34.520;150.798;2022-07-18T11:54:11;101408.84;;;12.55;46.52
63395;BME280;49531;-34.520;150.798;2022-07-18T11:56:50;101395.47;;;12.55;46.26
63395;BME280;49531;-34.520;150.798;2022-07-18T11:59:17;101413.00;;;12.57;47.09
63395;BME280;49531;-34.520;150.798;2022-07-18T12:01:45;101411.53;;;12.55;47.53
63395;BME280;49531;-34.520;150.798;2022-07-18T12:04:23;101419.94;;;12.52;48.19
63395;BME280;49531;-34.520;150.798;2022-07-18T12:07:16;101429.56;;;12.46;49.03
63395;BME280;49531;-34.520;150.798;2022-07-18T12:09:45;101431.81;;;12.43;48.78
63395;BME280;49531;-34.520;150.798;2022-07-18T12:12:13;101440.28;;;12.46;48.36
63395;BME280;49531;-34.520;150.798;2022-07-18T12:14:40;101439.47;;;12.46;48.67
63395;BME280;49531;-34.520;150.798;2022-07-18T12:17:08;101432.53;;;12.51;48.30
63395;BME280;49531;-34.520;150.798;2022-07-18T12:19:39;101438.91;;;12.50;48.30
63395;BME280;49531;-34.520;150.798;2022-07-18T12:22:11;101445.53;;;12.54;48.15
63395;BME280;49531;-34.520;150.798;2022-07-18T12:24:41;101441.47;;;12.58;47.56
63395;BME280;49531;-34.520;150.798;2022-07-18T12:32:55;101463.66;;;12.52;48.03
63395;BME280;49531;-34.520;150.798;2022-07-18T12:35:24;101471.31;;;12.55;48.16
63395;BME280;49531;-34.520;150.798;2022-07-18T12:40:20;101469.75;;;12.46;48.90
63395;BME280;49531;-34.520;150.798;2022-07-18T12:42:47;101475.00;;;12.54;48.21
63395;BME280;49531;-34.520;150.798;2022-07-18T12:45:15;101477.44;;;12.49;49.28
63395;BME280;49531;-34.520;150.798;2022-07-18T12:47:42;101471.78;;;12.59;49.22
63395;BME280;49531;-34.520;150.798;2022-07-18T12:50:09;101471.69;;;12.52;50.02
63395;BME280;49531;-34.520;150.798;2022-07-18T12:52:36;101477.31;;;12.57;49.62
63395;BME280;49531;-34.520;150.798;2022-07-18T12:55:04;101477.06;;;12.52;50.50
63395;BME280;49531;-34.520;150.798;2022-07-18T12:57:31;101480.09;;;12.49;50.20
63395;BME280;49531;-34.520;150.798;2022-07-18T12:59:58;101474.84;;;12.41;50.75
63395;BME280;49531;-34.520;150.798;2022-07-18T13:02:25;101472.81;;;12.43;50.93
63395;BME280;49531;-34.520;150.798;2022-07-18T13:04:52;101477.34;;;12.43;51.16
63395;BME280;49531;-34.520;150.798;2022-07-18T13:07:19;101467.53;;;12.50;50.47
63395;BME280;49531;-34.520;150.798;2022-07-18T13:09:46;101465.59;;;12.44;51.11
63395;BME280;49531;-34.520;150.798;2022-07-18T13:12:14;101470.13;;;12.43;51.11
63395;BME280;49531;-34.520;150.798;2022-07-18T13:14:41;101478.13;;;12.37;52.00
63395;BME280;49531;-34.520;150.798;2022-07-18T13:17:08;101489.13;;;12.27;52.96
63395;BME280;49531;-34.520;150.798;2022-07-18T13:19:35;101480.91;;;12.28;52.72